Time;durP1;ratioP1;P1;durP2;ratioP2;P2;SDS_P1;SDS_P2;PMS_P1;PMS_P2;Temp;Humidity;BMP_temperature;BMP_pressure;BME280_temperature;BME280_humidity;BME280_pressure;Samples;Min_cycle;Max_cycle;Signal;HPM_P1;HPM_P2
2022/07/26 00:01:27;;;;;;;5.25;0.80;;;;;;;19.33;63.73;101120.84;5048010;28;20040;-73
2022/07/26 00:03:53;;;;;;;3.85;1.08;;;;;;;19.31;63.88;101114.97;5048732;28;20028;-73
2022/07/26 00:06:19;;;;;;;3.05;1.30;;;;;;;19.30;64.29;101118.63;5043029;28;20408;-74
2022/07/26 00:08:45;;;;;;;4.57;1.02;;;;;;;19.20;64.46;101117.22;5047160;28;20500;-74
2022/07/26 00:11:10;;;;;;;5.00;1.00;;;;;;;19.18;64.81;101113.19;5046931;28;20091;-73
2022/07/26 00:13:36;;;;;;;2.78;0.85;;;;;;;19.17;64.99;101117.63;5027637;28;20047;-74
2022/07/26 00:16:03;;;;;;;6.47;1.02;;;;;;;19.24;64.82;101117.63;5043346;28;20032;-73
2022/07/26 00:18:29;;;;;;;6.78;0.98;;;;;;;19.14;64.98;101118.06;5045395;28;20087;-73
2022/07/26 00:20:54;;;;;;;4.88;2.00;;;;;;;19.04;65.51;101117.66;5062691;28;20157;-73
2022/07/26 00:23:20;;;;;;;3.97;0.95;;;;;;;19.04;65.40;101120.28;5046085;28;20036;-73
2022/07/26 00:25:45;;;;;;;1.65;0.60;;;;;;;19.03;65.53;101121.31;5044273;28;20070;-73
2022/07/26 00:28:11;;;;;;;6.97;1.10;;;;;;;19.03;65.72;101116.06;5042856;28;20184;-74
2022/07/26 00:30:37;;;;;;;3.85;0.77;;;;;;;19.01;65.98;101107.56;5060335;28;20055;-72
2022/07/26 00:33:03;;;;;;;4.35;1.20;;;;;;;19.01;65.85;101112.81;5045595;28;20062;-73
2022/07/26 00:35:28;;;;;;;6.30;1.20;;;;;;;19.00;65.76;101101.47;5068996;28;20036;-73
2022/07/26 00:37:54;;;;;;;5.25;0.88;;;;;;;18.94;66.04;101104.94;5066703;28;20036;-74
2022/07/26 00:40:19;;;;;;;2.97;0.50;;;;;;;18.90;66.17;101103.72;5029185;28;20071;-73
2022/07/26 00:42:45;;;;;;;2.28;0.85;;;;;;;18.87;66.36;101109.38;5044641;28;20496;-73
2022/07/26 00:45:12;;;;;;;4.90;0.90;;;;;;;18.77;66.66;101106.34;5062329;28;20051;-73
2022/07/26 00:47:38;;;;;;;5.82;0.85;;;;;;;18.75;66.91;101111.00;5062327;28;20111;-72
2022/07/26 00:50:06;;;;;;;3.90;1.30;;;;;;;18.75;66.96;101108.38;5065300;28;20040;-73
2022/07/26 00:52:31;;;;;;;3.75;1.27;;;;;;;18.74;66.99;101110.19;5048016;28;20091;-72
2022/07/26 00:54:57;;;;;;;4.45;0.85;;;;;;;18.71;67.12;101113.22;5058283;28;20033;-74
2022/07/26 00:57:22;;;;;;;3.72;0.70;;;;;;;18.58;67.63;101106.13;5062463;28;20032;-73
2022/07/26 00:59:48;;;;;;;4.15;0.95;;;;;;;18.58;67.50;101111.38;5057880;28;20024;-73
2022/07/26 01:02:14;;;;;;;3.40;0.98;;;;;;;18.59;67.62;101113.00;5046206;28;20060;-73
2022/07/26 01:04:43;;;;;;;6.05;1.00;;;;;;;18.52;67.96;101106.16;5060453;28;20548;-72
2022/07/26 01:07:08;;;;;;;6.10;1.10;;;;;;;18.48;68.16;101110.97;5042488;28;20036;-73
2022/07/26 01:09:34;;;;;;;7.50;0.95;;;;;;;18.54;68.11;101106.75;5061217;28;20040;-73
2022/07/26 01:12:00;;;;;;;7.28;1.90;;;;;;;18.47;68.38;101111.97;5041873;28;20060;-73
2022/07/26 01:14:25;;;;;;;7.10;0.85;;;;;;;18.43;68.52;101116.81;5060915;28;20512;-73
2022/07/26 01:16:51;;;;;;;4.60;1.05;;;;;;;18.41;68.84;101115.41;5042383;28;20128;-72
2022/07/26 01:19:18;;;;;;;4.25;1.10;;;;;;;18.40;68.91;101111.16;5059655;28;20024;-72
2022/07/26 01:21:44;;;;;;;7.10;1.15;;;;;;;18.34;69.08;101114.59;5061235;28;20039;-72
2022/07/26 01:24:10;;;;;;;3.45;0.95;;;;;;;18.34;69.36;101110.13;5042733;28;20033;-73
2022/07/26 01:26:35;;;;;;;3.83;0.95;;;;;;;18.34;69.32;101107.50;5058563;28;20032;-73
2022/07/26 01:29:01;;;;;;;3.88;0.70;;;;;;;18.29;69.74;101105.50;5058675;28;20043;-72
2022/07/26 01:31:26;;;;;;;5.38;1.00;;;;;;;18.28;69.84;101100.44;5059497;28;20040;-74
2022/07/26 01:33:52;;;;;;;3.60;0.93;;;;;;;18.26;69.63;101112.97;5060146;28;20446;-72
2022/07/26 01:36:18;;;;;;;2.05;0.88;;;;;;;18.24;69.79;101109.72;5061620;28;20025;-72
2022/07/26 01:38:43;;;;;;;3.65;1.13;;;;;;;18.23;70.15;101111.56;5058465;28;20036;-72
2022/07/26 01:41:09;;;;;;;3.97;1.02;;;;;;;18.26;69.99;101107.72;5060993;28;20033;-72
2022/07/26 01:43:36;;;;;;;4.43;0.98;;;;;;;18.23;70.29;101116.81;5060708;28;20170;-72
2022/07/26 01:46:03;;;;;;;3.20;1.02;;;;;;;18.19;70.75;101118.19;5061022;28;20732;-73
2022/07/26 01:48:29;;;;;;;6.55;1.30;;;;;;;18.27;70.54;101119.81;5058045;28;20035;-70
2022/07/26 01:50:54;;;;;;;6.97;1.15;;;;;;;18.27;70.33;101118.03;5041481;28;20572;-72
2022/07/26 01:53:20;;;;;;;5.28;1.52;;;;;;;18.28;70.30;101105.69;5041913;28;20047;-72
2022/07/26 01:55:45;;;;;;;3.47;1.10;;;;;;;18.33;70.40;101115.59;5039103;28;20040;-76
2022/07/26 01:58:11;;;;;;;6.78;1.17;;;;;;;18.31;70.29;101120.22;5043332;28;20040;-75
2022/07/26 02:00:36;;;;;;;7.38;1.10;;;;;;;18.18;70.57;101110.53;5044321;28;20032;-73
2022/07/26 02:03:02;;;;;;;4.88;1.55;;;;;;;18.14;71.10;101111.91;5058443;28;20093;-73
2022/07/26 02:05:28;;;;;;;5.95;1.77;;;;;;;18.15;70.76;101121.41;5042369;28;20766;-73
2022/07/26 02:07:53;;;;;;;7.75;1.58;;;;;;;18.24;71.01;101117.59;5059992;28;20043;-75
2022/07/26 02:10:19;;;;;;;5.55;1.40;;;;;;;18.30;70.42;101122.06;5041778;28;20027;-74
2022/07/26 02:12:44;;;;;;;6.63;1.27;;;;;;;18.16;71.12;101115.16;5060119;28;20036;-72
2022/07/26 02:15:11;;;;;;;6.80;1.20;;;;;;;18.06;71.58;101116.38;5060643;28;20044;-72
2022/07/26 02:17:37;;;;;;;4.93;1.35;;;;;;;18.04;71.74;101120.97;5043955;28;20028;-72
2022/07/26 02:20:03;;;;;;;3.03;1.00;;;;;;;18.14;71.73;101119.78;5030361;28;20118;-75
2022/07/26 02:22:29;;;;;;;4.47;1.27;;;;;;;18.02;71.99;101127.44;5057855;28;20032;-71
2022/07/26 02:24:54;;;;;;;12.48;1.40;;;;;;;18.02;71.98;101119.56;5057097;28;20040;-73
2022/07/26 02:27:20;;;;;;;6.95;1.20;;;;;;;17.97;72.23;101116.72;5044175;28;20036;-74
2022/07/26 02:29:46;;;;;;;10.25;1.30;;;;;;;17.97;72.14;101122.78;5055804;28;20043;-73
2022/07/26 02:32:11;;;;;;;6.78;1.40;;;;;;;17.97;72.49;101119.34;5042906;28;20550;-73
2022/07/26 02:34:37;;;;;;;9.45;1.30;;;;;;;17.99;72.39;101122.56;5056110;28;20036;-74
2022/07/26 02:37:03;;;;;;;7.32;1.45;;;;;;;18.11;72.02;101125.44;5057036;28;20663;-73
2022/07/26 02:39:28;;;;;;;5.65;1.50;;;;;;;18.01;72.35;101126.63;5032060;28;20048;-72
2022/07/26 02:42:00;;;;;;;7.72;1.50;;;;;;;17.88;73.13;101135.25;5047095;28;20033;-72
2022/07/26 02:44:26;;;;;;;4.40;1.10;;;;;;;17.83;73.42;101131.56;5025460;28;20063;-72
2022/07/26 02:46:52;;;;;;;5.60;1.30;;;;;;;17.93;73.09;101132.03;5067043;28;20081;-72
2022/07/26 02:49:18;;;;;;;8.30;1.30;;;;;;;17.81;74.08;101137.00;5064479;28;20036;-72
2022/07/26 02:51:44;;;;;;;9.52;1.50;;;;;;;17.89;73.78;101138.69;5029879;28;20068;-72
2022/07/26 02:54:10;;;;;;;13.52;1.45;;;;;;;17.89;73.76;101136.88;5061435;28;20033;-73
2022/07/26 02:56:36;;;;;;;13.73;1.60;;;;;;;17.89;73.89;101136.06;5061139;28;20041;-72
2022/07/26 02:59:01;;;;;;;5.65;1.42;;;;;;;17.88;74.18;101134.47;5059938;28;20037;-72
2022/07/26 03:01:28;;;;;;;3.65;1.27;;;;;;;17.90;73.90;101133.25;5062420;28;20024;-72
2022/07/26 03:03:53;;;;;;;11.45;1.73;;;;;;;17.85;74.08;101134.84;5062017;28;20114;-72
2022/07/26 03:06:19;;;;;;;4.90;1.40;;;;;;;17.82;74.58;101149.13;5047249;28;20048;-74
2022/07/26 03:08:44;;;;;;;4.22;1.30;;;;;;;17.93;74.17;101145.16;5044771;28;20037;-73
2022/07/26 03:11:10;;;;;;;8.00;1.15;;;;;;;17.86;74.41;101141.72;5059488;28;20045;-73
2022/07/26 03:13:35;;;;;;;3.78;1.15;;;;;;;17.89;74.53;101151.78;5044667;28;20404;-73
2022/07/26 03:16:01;;;;;;;3.85;1.02;;;;;;;17.85;74.64;101145.34;5061404;28;20629;-73
2022/07/26 03:18:26;;;;;;;7.63;1.52;;;;;;;17.77;75.07;101148.09;5060022;28;20036;-76
2022/07/26 03:20:52;;;;;;;6.18;1.40;;;;;;;17.83;75.08;101155.19;5026212;28;20397;-73
2022/07/26 03:23:17;;;;;;;5.13;1.92;;;;;;;17.80;75.19;101152.94;5043532;28;20044;-73
2022/07/26 03:25:43;;;;;;;7.20;1.40;;;;;;;17.87;75.10;101156.44;5047329;28;20592;-75
2022/07/26 03:28:08;;;;;;;6.93;1.65;;;;;;;17.89;75.02;101151.78;5045452;28;20468;-72
2022/07/26 03:30:33;;;;;;;7.20;1.50;;;;;;;17.92;74.87;101159.28;5065235;28;20048;-72
2022/07/26 03:32:59;;;;;;;15.77;2.35;;;;;;;17.90;74.93;101164.72;5059610;28;20041;-73
2022/07/26 03:35:25;;;;;;;9.45;2.00;;;;;;;17.86;75.34;101160.06;5046727;28;20032;-72
2022/07/26 03:37:51;;;;;;;4.68;1.33;;;;;;;17.88;75.42;101160.69;5043074;28;20078;-73
2022/07/26 03:40:17;;;;;;;5.68;1.75;;;;;;;17.81;75.76;101163.22;5059707;28;20094;-73
2022/07/26 03:42:44;;;;;;;5.75;1.40;;;;;;;17.73;76.09;101165.22;5062727;28;20039;-73
2022/07/26 03:45:11;;;;;;;8.13;1.77;;;;;;;17.70;76.44;101169.84;5058441;28;20032;-73
2022/07/26 03:47:36;;;;;;;5.15;1.50;;;;;;;17.71;76.46;101168.03;5042815;28;20043;-73
2022/07/26 03:50:06;;;;;;;10.50;1.90;;;;;;;17.81;76.20;101165.84;5041563;28;20036;-73
2022/07/26 03:52:32;;;;;;;7.55;2.00;;;;;;;17.80;76.14;101171.28;5028059;28;20036;-73
2022/07/26 03:54:58;;;;;;;9.45;2.45;;;;;;;17.83;76.80;101170.91;5060379;28;20524;-74
2022/07/26 03:57:24;;;;;;;8.55;1.60;;;;;;;17.79;77.67;101175.72;5043985;28;20099;-72
2022/07/26 03:59:49;;;;;;;7.78;1.95;;;;;;;17.65;78.06;101179.28;5048251;28;20495;-73
2022/07/26 04:02:15;;;;;;;11.32;2.53;;;;;;;17.66;78.08;101179.09;5059577;28;20032;-73
2022/07/26 04:04:40;;;;;;;13.70;2.50;;;;;;;17.71;77.80;101183.78;5028555;28;20044;-73
2022/07/26 04:07:06;;;;;;;6.30;1.50;;;;;;;17.67;78.03;101183.34;5056231;28;20036;-73
2022/07/26 04:09:31;;;;;;;11.75;2.45;;;;;;;17.69;78.08;101176.09;5041014;28;20032;-73
2022/07/26 04:11:57;;;;;;;8.63;1.75;;;;;;;17.67;77.74;101175.47;5043084;28;20025;-75
2022/07/26 04:14:22;;;;;;;9.85;1.90;;;;;;;17.64;78.15;101188.97;5040732;28;20040;-72
2022/07/26 04:16:48;;;;;;;17.80;1.95;;;;;;;17.78;77.93;101186.41;5060461;28;20016;-71
2022/07/26 04:19:13;;;;;;;10.85;1.73;;;;;;;17.66;78.00;101197.44;5063104;28;20489;-72
2022/07/26 04:21:38;;;;;;;11.73;3.08;;;;;;;17.71;77.92;101189.03;5043063;28;20102;-73
2022/07/26 04:24:04;;;;;;;13.57;2.67;;;;;;;17.59;78.40;101193.16;5061771;28;20028;-74
2022/07/26 04:26:30;;;;;;;11.52;2.85;;;;;;;17.56;78.80;101189.13;5039638;28;20542;-72
2022/07/26 04:28:56;;;;;;;14.48;2.92;;;;;;;17.60;78.73;101192.19;5063275;28;20039;-72
2022/07/26 04:31:21;;;;;;;11.48;2.08;;;;;;;17.62;78.81;101193.59;5044421;28;20033;-72
2022/07/26 04:33:47;;;;;;;6.25;1.83;;;;;;;17.72;78.87;101201.13;5063739;28;20033;-72
2022/07/26 04:36:12;;;;;;;8.23;1.75;;;;;;;17.73;78.58;101200.13;4503902;28;15072352;-73
2022/07/26 04:38:38;;;;;;;9.77;1.60;;;;;;;17.73;78.43;101202.75;5023291;28;20561;-73
2022/07/26 04:41:04;;;;;;;7.55;2.00;;;;;;;17.64;79.03;101209.16;5060776;28;20033;-73
2022/07/26 04:43:29;;;;;;;11.70;1.73;;;;;;;17.60;79.45;101200.84;5062540;28;20036;-73
2022/07/26 04:45:56;;;;;;;7.35;1.88;;;;;;;17.66;79.16;101201.88;5062140;28;20027;-73
2022/07/26 04:48:22;;;;;;;6.93;1.70;;;;;;;17.67;79.35;101201.72;5062636;28;20032;-73
2022/07/26 04:50:47;;;;;;;9.27;1.80;;;;;;;17.71;78.93;101202.94;5047875;28;20041;-73
2022/07/26 04:53:13;;;;;;;16.55;3.53;;;;;;;17.68;79.15;101208.56;5041049;28;20024;-73
2022/07/26 04:55:39;;;;;;;19.80;2.20;;;;;;;17.68;79.22;101205.94;5046223;28;20115;-72
2022/07/26 04:58:05;;;;;;;13.73;2.30;;;;;;;17.75;79.38;101208.59;5044493;28;21076;-73
2022/07/26 05:00:30;;;;;;;7.00;2.38;;;;;;;17.73;79.36;101213.25;5059767;28;20040;-73
2022/07/26 05:02:58;;;;;;;6.72;2.00;;;;;;;17.64;79.62;101217.00;5044115;28;20029;-72
2022/07/26 05:05:26;;;;;;;11.45;2.22;;;;;;;17.67;79.80;101216.63;5060872;28;20043;-74
2022/07/26 05:07:54;;;;;;;11.18;2.42;;;;;;;17.72;79.70;101219.47;5042165;28;20032;-73
2022/07/26 05:10:21;;;;;;;12.95;2.78;;;;;;;17.75;79.42;101210.44;5056782;28;20032;-73
2022/07/26 05:12:48;;;;;;;18.15;6.32;;;;;;;17.82;79.29;101217.31;5045232;28;20032;-73
2022/07/26 05:15:14;;;;;;;12.30;2.80;;;;;;;17.82;79.53;101217.31;5039920;28;20121;-73
2022/07/26 05:17:41;;;;;;;15.57;2.72;;;;;;;17.84;79.64;101219.75;5059090;28;20029;-75
2022/07/26 05:20:09;;;;;;;7.90;2.50;;;;;;;17.81;79.64;101209.66;5059410;28;20063;-73
2022/07/26 05:22:35;;;;;;;8.45;1.67;;;;;;;17.74;80.12;101219.28;5044614;28;20507;-72
2022/07/26 05:25:02;;;;;;;13.25;2.95;;;;;;;17.79;80.21;101222.94;5046303;28;20063;-74
2022/07/26 05:27:28;;;;;;;13.40;2.30;;;;;;;17.92;79.77;101217.00;5061013;28;21908;-73
2022/07/26 05:29:54;;;;;;;13.32;2.70;;;;;;;17.90;79.66;101221.63;5060942;28;20024;-74
2022/07/26 05:32:21;;;;;;;10.60;2.50;;;;;;;17.89;79.83;101212.13;5043867;28;20036;-75
2022/07/26 05:34:46;;;;;;;7.07;2.20;;;;;;;17.84;80.03;101219.75;5040271;28;20040;-73
2022/07/26 05:37:12;;;;;;;7.65;1.60;;;;;;;17.95;80.03;101213.16;5041992;28;20029;-72
2022/07/26 05:39:37;;;;;;;6.93;2.13;;;;;;;17.93;80.22;101217.78;5060781;28;20078;-75
2022/07/26 05:42:03;;;;;;;18.30;4.28;;;;;;;17.92;80.43;101214.38;5059577;28;20047;-73
2022/07/26 05:44:28;;;;;;;11.93;2.05;;;;;;;17.95;80.36;101214.00;5042676;28;20033;-73
2022/07/26 05:46:54;;;;;;;15.98;3.05;;;;;;;17.95;80.12;101214.00;5064853;28;20386;-74
2022/07/26 05:49:19;;;;;;;14.07;3.05;;;;;;;18.00;80.14;101210.78;5027767;28;20055;-72
2022/07/26 05:51:45;;;;;;;16.30;3.05;;;;;;;17.87;80.59;101206.28;5040825;28;20040;-75
2022/07/26 05:54:10;;;;;;;15.32;3.67;;;;;;;17.94;80.12;101217.59;5028338;28;20105;-72
2022/07/26 05:56:36;;;;;;;15.52;3.47;;;;;;;17.95;80.04;101218.41;5041664;28;20032;-74
2022/07/26 05:59:01;;;;;;;12.50;2.97;;;;;;;17.89;80.51;101220.81;5064573;28;20068;-74
2022/07/26 06:01:31;;;;;;;11.18;2.55;;;;;;;17.84;80.81;101225.00;5062064;28;20047;-73
2022/07/26 06:03:59;;;;;;;15.40;3.33;;;;;;;17.89;81.14;101220.81;5046201;28;20431;-73
2022/07/26 06:06:25;;;;;;;11.98;2.42;;;;;;;17.96;80.71;101220.03;5042898;28;20508;-73
2022/07/26 06:08:50;;;;;;;10.68;2.35;;;;;;;18.01;80.41;101223.69;5045553;28;20039;-72
2022/07/26 06:11:16;;;;;;;20.00;2.38;;;;;;;18.01;80.28;101230.78;5059143;28;20052;-74
2022/07/26 06:13:41;;;;;;;11.68;3.28;;;;;;;18.06;80.16;101223.09;5029982;28;20036;-76
2022/07/26 06:16:07;;;;;;;11.27;2.25;;;;;;;18.03;80.56;101232.19;5038148;28;20607;-73
2022/07/26 06:18:33;;;;;;;10.77;2.08;;;;;;;18.12;80.46;101238.09;5063250;28;20425;-73
2022/07/26 06:20:58;;;;;;;9.73;2.00;;;;;;;18.14;80.25;101243.13;5033107;28;20035;-73
2022/07/26 06:23:24;;;;;;;33.53;4.22;;;;;;;18.24;79.68;101240.97;5046398;28;20044;-73
2022/07/26 06:25:49;;;;;;;10.25;2.35;;;;;;;18.26;80.06;101239.75;5047877;28;20036;-73
2022/07/26 06:28:15;;;;;;;7.32;2.28;;;;;;;18.33;80.11;101238.94;5043349;28;20036;-72
2022/07/26 06:30:43;;;;;;;8.52;2.10;;;;;;;18.31;79.98;101244.44;5044965;28;20037;-74
2022/07/26 06:33:09;;;;;;;8.43;2.55;;;;;;;18.35;79.97;101243.03;5046585;28;20032;-75
2022/07/26 06:35:37;;;;;;;15.60;2.50;;;;;;;18.32;79.59;101250.47;5068889;28;20047;-74
2022/07/26 06:38:06;;;;;;;14.85;3.38;;;;;;;18.36;80.11;101249.88;5047073;28;20089;-73
2022/07/26 06:40:32;;;;;;;10.07;2.88;;;;;;;18.47;79.60;101261.63;5037863;28;20040;-73
2022/07/26 06:43:01;;;;;;;15.00;3.15;;;;;;;18.51;79.78;101267.31;5060605;28;20047;-73
2022/07/26 06:45:28;;;;;;;9.00;2.97;;;;;;;18.55;79.47;101264.06;5046369;28;20056;-72
2022/07/26 06:47:54;;;;;;;15.90;3.03;;;;;;;18.62;79.33;101264.91;5028203;28;20029;-75
2022/07/26 06:50:20;;;;;;;20.05;3.33;;;;;;;18.84;78.62;101267.44;5063916;28;20043;-74
2022/07/26 06:52:45;;;;;;;12.02;2.67;;;;;;;18.95;77.94;101264.22;5062155;28;20402;-73
2022/07/26 06:55:11;;;;;;;14.38;3.60;;;;;;;18.91;77.88;101268.25;5041121;28;20037;-72
2022/07/26 06:57:37;;;;;;;10.40;3.42;;;;;;;18.99;78.05;101265.44;5061211;28;21430;-73
2022/07/26 07:00:05;;;;;;;15.68;3.53;;;;;;;19.11;77.45;101263.00;5043342;28;20036;-74
2022/07/26 07:02:30;;;;;;;18.23;3.38;;;;;;;19.10;77.81;101273.72;5037004;28;20037;-74
2022/07/26 07:04:56;;;;;;;12.77;3.00;;;;;;;19.23;77.11;101273.72;5062303;28;20029;-72
2022/07/26 07:07:21;;;;;;;14.82;3.78;;;;;;;19.34;76.85;101281.00;5065750;28;20384;-73
2022/07/26 07:09:47;;;;;;;13.80;4.30;;;;;;;19.34;77.22;101277.56;5043498;28;20032;-74
2022/07/26 07:12:14;;;;;;;17.90;4.38;;;;;;;19.32;77.29;101283.03;5046230;28;20118;-74
2022/07/26 07:14:39;;;;;;;12.10;2.92;;;;;;;19.45;76.64;101282.22;5045375;28;20546;-74
2022/07/26 07:17:05;;;;;;;15.13;2.90;;;;;;;19.52;76.82;101271.72;5059422;28;20028;-74
2022/07/26 07:19:34;;;;;;;11.70;2.75;;;;;;;19.77;75.36;101277.97;5047567;28;20076;-73
2022/07/26 07:21:59;;;;;;;14.75;3.80;;;;;;;19.86;74.69;101278.56;5042422;28;20634;-74
2022/07/26 07:24:25;;;;;;;14.30;3.15;;;;;;;20.29;73.03;101282.50;5065648;28;20024;-73
2022/07/26 07:26:50;;;;;;;13.45;2.88;;;;;;;20.64;71.48;101276.88;5071917;28;20581;-74
2022/07/26 07:29:19;;;;;;;12.25;3.28;;;;;;;20.83;70.45;101277.78;5066935;28;20044;-74
2022/07/26 07:31:47;;;;;;;11.73;2.92;;;;;;;21.42;68.09;101283.63;5050735;28;20076;-75
2022/07/26 07:34:14;;;;;;;12.65;4.03;;;;;;;21.71;66.88;101287.44;5061538;28;20059;-75
2022/07/26 07:36:39;;;;;;;21.27;3.97;;;;;;;21.79;66.84;101287.16;5063915;28;20024;-72
2022/07/26 07:39:05;;;;;;;14.07;3.33;;;;;;;22.47;64.44;101286.22;5046452;28;20531;-74
2022/07/26 07:41:33;;;;;;;11.00;2.33;;;;;;;23.08;62.19;101286.97;5045964;28;20154;-73
2022/07/26 07:43:59;;;;;;;13.15;3.75;;;;;;;23.36;61.13;101285.53;5067557;28;20068;-74
2022/07/26 07:46:24;;;;;;;15.82;3.10;;;;;;;23.33;60.97;101281.47;5052976;28;20147;-75
2022/07/26 07:48:50;;;;;;;10.27;2.47;;;;;;;23.42;60.23;101279.31;5031252;28;20032;-74
2022/07/26 07:51:15;;;;;;;13.20;2.78;;;;;;;23.02;61.27;101292.34;5047329;28;20689;-80
2022/07/26 07:53:41;;;;;;;12.75;2.58;;;;;;;22.53;62.40;101292.44;5047584;28;20043;-74
2022/07/26 07:56:07;;;;;;;16.05;3.75;;;;;;;22.85;62.06;101290.38;5049794;28;20025;-75
2022/07/26 07:58:32;;;;;;;14.82;3.30;;;;;;;23.52;60.19;101290.13;5046624;28;20087;-74
2022/07/26 08:00:57;;;;;;;14.27;3.25;;;;;;;24.18;57.46;101292.59;5055900;28;20114;-74
2022/07/26 08:03:23;;;;;;;9.35;3.33;;;;;;;24.12;57.02;101296.19;5070319;28;20028;-79
2022/07/26 08:05:48;;;;;;;11.48;2.80;;;;;;;24.22;57.14;101295.56;5034661;28;20040;-73
2022/07/26 08:08:15;;;;;;;11.38;3.13;;;;;;;24.39;56.47;101290.31;5054419;28;20036;-75
2022/07/26 08:10:41;;;;;;;17.48;3.08;;;;;;;24.32;56.11;101306.38;5043966;28;20037;-74
2022/07/26 08:13:06;;;;;;;28.70;4.43;;;;;;;23.76;57.47;101299.91;5065992;28;20127;-77
2022/07/26 08:15:33;;;;;;;16.58;2.80;;;;;;;23.43;58.62;101301.28;5065070;28;20085;-74
2022/07/26 08:17:58;;;;;;;12.95;3.47;;;;;;;23.35;59.80;101291.84;5045737;28;20021;-74
2022/07/26 08:20:24;;;;;;;14.57;3.00;;;;;;;23.33;60.05;101288.63;5056069;28;20400;-74
2022/07/26 08:22:49;;;;;;;11.63;3.72;;;;;;;23.62;59.53;101296.66;5065498;28;20029;-74
2022/07/26 08:25:15;;;;;;;9.63;2.90;;;;;;;23.77;58.43;101291.75;5048228;28;20590;-73
2022/07/26 08:27:40;;;;;;;7.93;2.55;;;;;;;24.35;56.43;101283.91;5062785;28;20670;-74
2022/07/26 08:30:06;;;;;;;12.65;3.97;;;;;;;24.79;54.46;101294.78;5049564;28;20044;-74
2022/07/26 08:32:32;;;;;;;11.85;3.30;;;;;;;25.29;53.41;101287.94;5047431;28;20167;-74
2022/07/26 08:34:57;;;;;;;10.95;3.33;;;;;;;24.83;53.92;101293.28;5043177;28;20094;-74
2022/07/26 08:37:23;;;;;;;11.32;3.08;;;;;;;25.30;53.24;101297.47;5063970;28;20033;-73
2022/07/26 08:39:48;;;;;;;8.07;2.90;;;;;;;25.25;53.21;101291.06;5047888;28;20435;-73
2022/07/26 08:42:16;;;;;;;7.63;2.60;;;;;;;25.11;53.00;101291.59;5063094;28;20036;-74
2022/07/26 08:44:46;;;;;;;8.40;3.40;;;;;;;24.44;55.30;101293.88;5065152;28;20382;-76
2022/07/26 08:47:12;;;;;;;6.93;2.67;;;;;;;24.15;55.69;101295.72;5069008;28;20439;-74
2022/07/26 08:49:38;;;;;;;9.27;2.58;;;;;;;24.59;54.01;101297.91;5046637;28;20083;-75
2022/07/26 08:52:04;;;;;;;7.95;2.30;;;;;;;24.18;55.02;101300.53;5047018;28;20534;-71
2022/07/26 08:54:30;;;;;;;9.65;2.50;;;;;;;24.21;55.02;101293.97;5061310;28;20024;-74
2022/07/26 08:56:55;;;;;;;6.22;1.70;;;;;;;24.20;55.78;101300.31;5064498;28;20559;-73
2022/07/26 08:59:21;;;;;;;11.50;2.45;;;;;;;24.27;54.61;101300.97;5063960;28;20028;-74
2022/07/26 09:02:00;;;;;;;9.23;2.30;;;;;;;24.38;54.72;101302.00;5046547;28;20024;-80
2022/07/26 09:04:31;;;;;;;8.23;2.45;;;;;;;24.16;55.25;101299.16;5030126;28;20047;-74
2022/07/26 09:07:18;;;;;;;11.93;2.38;;;;;;;24.17;55.19;101296.28;5040641;28;20093;-75
2022/07/26 09:10:14;;;;;;;6.68;2.38;;;;;;;24.18;54.98;101303.19;5045841;28;20573;-74
2022/07/26 09:12:40;;;;;;;11.18;2.30;;;;;;;24.03;55.59;101306.31;5049017;28;20040;-75
2022/07/26 09:15:16;;;;;;;5.95;2.60;;;;;;;23.75;57.85;101299.06;5065260;28;20111;-75
2022/07/26 09:17:47;;;;;;;13.27;3.08;;;;;;;23.30;60.73;101311.06;5063214;28;20029;-75
2022/07/26 09:20:18;;;;;;;14.48;3.00;;;;;;;23.04;63.42;101320.22;5050401;28;20028;-76
2022/07/26 09:23:05;;;;;;;10.55;2.92;;;;;;;22.81;65.29;101333.31;5047503;28;20036;-75
2022/07/26 09:25:35;;;;;;;9.75;2.88;;;;;;;22.38;67.52;101329.81;5046058;28;20532;-76
2022/07/26 09:28:01;;;;;;;11.75;3.30;;;;;;;22.21;68.54;101332.22;5047160;28;20029;-76
2022/07/26 09:30:29;;;;;;;10.00;3.05;;;;;;;22.01;70.79;101329.78;5048405;28;20028;-76
2022/07/26 09:32:58;;;;;;;10.02;3.22;;;;;;;21.99;71.53;101334.47;5065035;28;20393;-76
2022/07/26 09:35:23;;;;;;;7.57;3.28;;;;;;;22.13;71.74;101343.06;5065873;28;20471;-76
2022/07/26 09:37:49;;;;;;;8.85;2.85;;;;;;;21.99;73.30;101334.47;5062271;28;20043;-75
2022/07/26 09:40:16;;;;;;;10.93;3.33;;;;;;;21.95;74.00;101342.03;5046673;28;20065;-76
2022/07/26 09:42:56;;;;;;;13.55;5.05;;;;;;;21.80;75.38;101349.47;5064942;28;20039;-76
2022/07/26 09:45:22;;;;;;;7.82;4.05;;;;;;;21.76;75.63;101343.03;5049891;28;20040;-77
2022/07/26 09:47:48;;;;;;;8.10;2.78;;;;;;;21.71;76.32;101341.03;5048270;28;20037;-77
2022/07/26 09:50:20;;;;;;;7.60;2.60;;;;;;;21.71;76.73;101345.50;5049158;28;20032;-77
2022/07/26 09:53:08;;;;;;;14.27;3.40;;;;;;;22.29;75.60;101339.88;5066660;28;20107;-78
2022/07/26 09:55:55;;;;;;;9.27;3.10;;;;;;;23.13;74.74;101336.53;5058853;28;20094;-77
2022/07/26 09:58:21;;;;;;;12.90;3.40;;;;;;;23.39;69.85;101330.03;5048342;28;20024;-78
2022/07/26 10:00:47;;;;;;;8.55;3.17;;;;;;;23.70;69.78;101333.41;5066921;28;20093;-79
2022/07/26 10:03:13;;;;;;;9.20;2.88;;;;;;;24.07;67.01;101330.50;5049828;28;20036;-79
2022/07/26 10:05:39;;;;;;;9.65;2.47;;;;;;;24.40;65.85;101331.69;5049337;28;20511;-76
2022/07/26 10:08:06;;;;;;;8.20;2.20;;;;;;;24.33;64.12;101328.38;5045591;28;20025;-77
2022/07/26 10:10:45;;;;;;;7.43;2.17;;;;;;;24.07;63.22;101328.69;5061466;28;20127;-77
2022/07/26 10:13:11;;;;;;;7.80;2.50;;;;;;;24.35;61.29;101332.38;5065054;28;20044;-77
2022/07/26 10:15:50;;;;;;;5.68;2.00;;;;;;;24.26;60.50;101331.97;5045153;28;20081;-76
2022/07/26 10:18:37;;;;;;;10.85;2.53;;;;;;;24.50;61.79;101326.59;5045768;28;20028;-78
2022/07/26 10:21:26;;;;;;;8.25;3.10;;;;;;;24.66;61.31;101325.88;5041655;28;20037;-77
2022/07/26 10:23:58;;;;;;;10.10;2.33;;;;;;;24.80;59.71;101329.00;5062308;28;20637;-74
2022/07/26 10:26:35;;;;;;;6.00;2.47;;;;;;;24.90;59.05;101333.69;5068414;28;20131;-76
2022/07/26 10:29:15;;;;;;;6.13;2.00;;;;;;;25.04;58.31;101326.25;5067913;28;20036;-78
2022/07/26 10:32:06;;;;;;;9.05;2.60;;;;;;;25.32;58.00;101332.56;5047613;28;20656;-74
2022/07/26 10:34:37;;;;;;;3.88;1.80;;;;;;;25.48;54.59;101333.59;5042264;28;20107;-75
2022/07/26 10:37:08;;;;;;;6.75;1.85;;;;;;;25.22;54.72;101341.94;5059380;28;20157;-78
2022/07/26 10:39:36;;;;;;;3.70;1.20;;;;;;;24.45;54.44;101351.16;5045650;28;20075;-77
2022/07/26 10:42:06;;;;;;;3.35;0.80;;;;;;;23.20;56.57;101360.25;5046100;28;20039;-77
2022/07/26 10:44:34;;;;;;;5.50;0.88;;;;;;;22.79;56.44;101365.25;5047063;28;20047;-79
2022/07/26 10:47:09;;;;;;;4.10;1.27;;;;;;;22.91;57.89;101373.25;5043082;28;20033;-74
2022/07/26 10:49:37;;;;;;;2.15;0.75;;;;;;;22.69;58.47;101381.66;5064515;28;20654;-75
2022/07/26 10:52:07;;;;;;;1.05;0.50;;;;;;;22.94;58.24;101370.97;5065632;28;20047;-75
2022/07/26 10:54:52;;;;;;;1.70;0.47;;;;;;;23.03;57.99;101376.75;5063322;28;20572;-77
2022/07/26 10:57:18;;;;;;;1.27;0.38;;;;;;;22.94;57.59;101384.19;5049098;28;20527;-74
2022/07/26 10:59:43;;;;;;;1.70;0.60;;;;;;;22.87;57.93;101383.47;5034190;28;20024;-74
2022/07/26 11:02:22;;;;;;;2.10;0.50;;;;;;;22.54;58.79;101395.25;5067419;28;20397;-74
2022/07/26 11:04:48;;;;;;;4.78;0.60;;;;;;;22.56;58.46;101389.75;5050557;28;20500;-76
2022/07/26 11:07:14;;;;;;;3.28;0.50;;;;;;;22.23;59.30;101392.75;5035172;28;20032;-78
2022/07/26 11:09:40;;;;;;;4.00;0.47;;;;;;;22.10;59.17;101394.47;5048449;28;20595;-75
2022/07/26 11:12:17;;;;;;;2.25;0.40;;;;;;;21.87;60.22;101387.19;5051416;28;20431;-74
2022/07/26 11:14:42;;;;;;;2.75;0.65;;;;;;;21.86;60.46;101398.75;5068179;28;20039;-77
2022/07/26 11:17:08;;;;;;;2.72;0.40;;;;;;;22.02;60.41;101399.22;5050270;28;20027;-74
2022/07/26 11:19:38;;;;;;;2.05;0.40;;;;;;;22.05;60.49;101398.78;5050543;28;20043;-74
2022/07/26 11:22:04;;;;;;;1.60;0.40;;;;;;;22.15;59.56;101399.09;5034405;28;20036;-75